Thunder radar more information blitzortung!


avis per Pluja more information rain snow radar


Visita la nostra xarxa de llocs de meteo:

Template documentation
and downloads

And another site



Rain From: 18-10-2018 10:00 Until: 16:59 warning for: Rain Level: Yellow info button

Pagina Historial Weather Underground text

Diari Resum May 17, 2016 Unitats:  Mètric    Imperial   Tant
« Previous Dia
SegĂźent Dia »
Diari Setmana Mensual Anual Personalitzada
  Maxima: Minima: Media:
Temperatura: -17.8 °C -11.6 °C -8.2 °C
Punt de rosada: -17.8 °C -13.9 °C -12.3 °C
Humitat: Humidity % 51 % 62 %
Wind Speed: 0 km/h 0 km/h 10.6 km/h
RĂ fegues de vent: 0 km/h - -
Vent:- - South
Pression baro: 0 hPa 34428.8 hPa -
Precipitacions: 0 mm    
Historical Graphs
 
 
Dades de taula per May 17, 2016
Temps Temperatura Punt de rosada Pression baro Vent Wind Speed RĂ fegues de vent Humitat Rainfall Rate (Hourly)
-17.8 °C -17.8 °C 0 hPa Calm     Humidity % 0 mm
00:03 -9.4 °C -13.7 °C 34601.5 hPa ENE 3.7 km/h   60 % 0 mm
02:55 -11.6 °C -13.8 °C 34567.7 hPa Calm   5.1 km/h 76 % 0 mm
03:05 -11.5 °C -13.9 °C 34567.7 hPa WSW 2.6 km/h 5.1 km/h 75 % 0 mm
03:15 -11.4 °C -13.7 °C 34601.5 hPa Calm   2.6 km/h 76 % 0 mm
03:25 -11.3 °C -13.6 °C 34601.5 hPa Calm   2.6 km/h 76 % 0 mm
03:35 -11.1 °C -13.5 °C 34601.5 hPa SSW 2.6 km/h 5.1 km/h 75 % 0 mm
03:45 -11 °C -13.4 °C 34601.5 hPa SSW 2.6 km/h 5.1 km/h 75 % 0 mm
03:55 -10.7 °C -13.1 °C 34567.7 hPa Calm   5.1 km/h 75 % 0 mm
04:05 -10.3 °C -12.7 °C 34567.7 hPa Calm   2.6 km/h 75 % 0 mm
04:15 -9.7 °C -12.1 °C 34601.5 hPa Calm   2.6 km/h 75 % 0 mm
04:25 -9.2 °C -11.8 °C 34601.5 hPa NE 5.1 km/h 7.7 km/h 74 % 0 mm
04:35 -8.8 °C -11.4 °C 34601.5 hPa ENE 5.1 km/h 10.3 km/h 74 % 0 mm
04:45 -8.7 °C -11.4 °C 34601.5 hPa ENE 7.7 km/h 10.3 km/h 73 % 0 mm
04:55 -8.5 °C -11.3 °C 34601.5 hPa NE 7.7 km/h 12.9 km/h 72 % 0 mm
05:05 -8.3 °C -11.4 °C 34601.5 hPa NE 7.7 km/h 12.9 km/h 70 % 0 mm
05:15 -8.2 °C -11.2 °C 34567.7 hPa NE 5.1 km/h 10.3 km/h 70 % 0 mm
05:25 -7.9 °C -11.3 °C 34567.7 hPa ENE 5.1 km/h 12.9 km/h 67 % 0 mm
05:35 -7.7 °C -11.4 °C 34567.7 hPa East 5.1 km/h 10.3 km/h 65 % 0 mm
05:45 -7.6 °C -11.6 °C 34567.7 hPa East 2.6 km/h 7.7 km/h 63 % 0 mm
05:55 -7.5 °C -11.5 °C 34567.7 hPa East 2.6 km/h 10.3 km/h 63 % 0 mm
06:05 -7.3 °C -11.6 °C 34567.7 hPa ENE 7.7 km/h 15.6 km/h 61 % 0 mm
06:15 -7.1 °C -11.6 °C 34567.7 hPa SSE 7.7 km/h 15.6 km/h 59 % 0 mm
06:25 -7.1 °C -11.8 °C 34567.7 hPa South 2.6 km/h 10.3 km/h 58 % 0 mm
06:35 -7 °C -12 °C 34567.7 hPa ESE 15.6 km/h 20.8 km/h 56 % 0 mm
11:42 -6.8 °C -12.3 °C 34533.8 hPa ESE 15 km/h 15 km/h 53 % 0 mm
11:47 -6.8 °C -12.1 °C 34533.8 hPa SSE 12.7 km/h 12.7 km/h 54 % 0 mm
11:52 -6.8 °C -12.1 °C 34533.8 hPa South 18.3 km/h 18.3 km/h 54 % 0 mm
11:57 -6.4 °C -11.7 °C 34533.8 hPa South 14.5 km/h 14.5 km/h 54 % 0 mm
12:02 -6.1 °C -11.8 °C 34533.8 hPa SW 6 km/h 6 km/h 52 % 0 mm
12:07 -6.7 °C -12.2 °C 34533.8 hPa ESE 15 km/h 15 km/h 53 % 0 mm
12:12 -6.7 °C -12.2 °C 34533.8 hPa ENE 6.3 km/h 6.3 km/h 53 % 0 mm
12:17 -6.8 °C -12.4 °C 34533.8 hPa ENE 15 km/h 15 km/h 52 % 0 mm
12:22 -7 °C -12.4 °C 34533.8 hPa NNE 15 km/h 15 km/h 53 % 0 mm
12:27 -7 °C -12.6 °C 34533.8 hPa ESE 14.5 km/h 14.5 km/h 52 % 0 mm
12:32 -6.8 °C -12.3 °C 34533.8 hPa East 20.9 km/h 20.9 km/h 53 % 0 mm
12:37 -6.7 °C -12.4 °C 34533.8 hPa ESE 17.9 km/h 17.9 km/h 52 % 0 mm
12:47 -6.3 °C -12 °C 34533.8 hPa East 19.2 km/h 19.2 km/h 52 % 0 mm
12:52 -6.7 °C -12.4 °C 34533.8 hPa ENE 15 km/h 15 km/h 51 % 0 mm
12:57 -6.6 °C -12.3 °C 34533.8 hPa SSW 15 km/h 15 km/h 52 % 0 mm
13:02 -6.4 °C -12.3 °C 34533.8 hPa ESE 17.9 km/h 17.9 km/h 51 % 0 mm
13:07 -6.6 °C -12.4 °C 34533.8 hPa East 25.1 km/h 25.1 km/h 51 % 0 mm
13:12 -6.9 °C -12.6 °C 34533.8 hPa East 23.8 km/h 23.8 km/h 52 % 0 mm
13:17 -7 °C -12.6 °C 34533.8 hPa ENE 32.8 km/h 32.8 km/h 52 % 0 mm
13:22 -6.9 °C -12.6 °C 34496.6 hPa East 22.5 km/h 22.5 km/h 52 % 0 mm
13:27 -6.7 °C -12.4 °C 34496.6 hPa ENE 17.9 km/h 17.9 km/h 52 % 0 mm
13:32 -6.7 °C -12.3 °C 34496.6 hPa SSW 18.3 km/h 18.3 km/h 52 % 0 mm
13:37 -6.4 °C -12.1 °C 34533.8 hPa ESE 20.9 km/h 20.9 km/h 52 % 0 mm
13:42 -6.2 °C -11.9 °C 34533.8 hPa NE 17.9 km/h 17.9 km/h 52 % 0 mm
13:47 -6.2 °C -11.9 °C 34533.8 hPa East 15.3 km/h 15.3 km/h 52 % 0 mm
13:52 -6.2 °C -11.9 °C 34533.8 hPa SSW 15 km/h 15 km/h 52 % 0 mm
13:57 -6.3 °C -11.9 °C 34533.8 hPa SE 17.9 km/h 17.9 km/h 52 % 0 mm
14:02 -6.5 °C -12.2 °C 34533.8 hPa ESE 15.6 km/h 17.4 km/h 52 % 0 mm
14:07 -6.7 °C -12.3 °C 34533.8 hPa East 17.9 km/h 17.9 km/h 52 % 0 mm
14:13 -6.7 °C -12.3 °C 34533.8 hPa NNE 15 km/h 15 km/h 52 % 0 mm
14:18 -6.7 °C -12.2 °C 34533.8 hPa NNE 26.9 km/h 26.9 km/h 53 % 0 mm
14:28 -7 °C -12.3 °C 34533.8 hPa ESE 20.9 km/h 20.9 km/h 54 % 0 mm
14:33 -7.1 °C -12.3 °C 34533.8 hPa ESE 32.8 km/h 32.8 km/h 55 % 0 mm
14:38 -7.1 °C -12.3 °C 34533.8 hPa ENE 29.8 km/h 29.8 km/h 55 % 0 mm
14:43 -7.1 °C -12.1 °C 34533.8 hPa East 23.8 km/h 23.8 km/h 56 % 0 mm
14:48 -7.1 °C -12.1 °C 34533.8 hPa SE 32.8 km/h 32.8 km/h 56 % 0 mm
14:53 -7.2 °C -12.2 °C 34496.6 hPa ESE 23.8 km/h 23.8 km/h 56 % 0 mm
14:58 -7.1 °C -12 °C 34496.6 hPa South 15.3 km/h 15.3 km/h 57 % 0 mm
15:03 -7.1 °C -11.8 °C 34496.6 hPa East 20.9 km/h 20.9 km/h 58 % 0 mm
15:08 -7.2 °C -11.8 °C 34496.6 hPa ENE 23.8 km/h 23.8 km/h 58 % 0 mm
15:13 -7.1 °C -11.8 °C 34496.6 hPa WSW 11.9 km/h 11.9 km/h 58 % 0 mm
15:18 -7.1 °C -11.7 °C 34496.6 hPa South 15 km/h 16.1 km/h 59 % 0 mm
15:23 -7.2 °C -11.7 °C 34496.6 hPa South 16.1 km/h 16.1 km/h 59 % 0 mm
15:28 -6.9 °C -11.5 °C 34496.6 hPa SSE 14.5 km/h 14.5 km/h 59 % 0 mm
15:33 -7.1 °C -11.8 °C 34496.6 hPa WSW 9 km/h 9 km/h 58 % 0 mm
15:38 -7.2 °C -11.8 °C 34496.6 hPa ESE 15 km/h 15 km/h 58 % 0 mm
15:43 -7.1 °C -11.8 °C 34496.6 hPa WNW 6 km/h 6 km/h 58 % 0 mm
15:48 -6.9 °C -11.7 °C 34496.6 hPa South 9.3 km/h 9.3 km/h 58 % 0 mm
15:53 -7 °C -11.7 °C 34496.6 hPa SSE 16.1 km/h 16.1 km/h 58 % 0 mm
15:58 -7.1 °C -11.8 °C 34496.6 hPa SSW 15 km/h 15 km/h 58 % 0 mm
16:03 -7 °C -11.8 °C 34496.6 hPa South 20.9 km/h 20.9 km/h 57 % 0 mm
16:08 -7.1 °C -12 °C 34496.6 hPa South 11.1 km/h 11.1 km/h 57 % 0 mm
16:13 -7 °C -12 °C 34496.6 hPa SW 15.3 km/h 15.3 km/h 56 % 0 mm
16:18 -7 °C -12 °C 34496.6 hPa WSW 9 km/h 9 km/h 56 % 0 mm
16:23 -7 °C -12.2 °C 34496.6 hPa WSW 20.9 km/h 20.9 km/h 55 % 0 mm
16:28 -6.7 °C -11.8 °C 34496.6 hPa SSW 11.9 km/h 11.9 km/h 55 % 0 mm
16:33 -6.7 °C -12.2 °C 34496.6 hPa SSW 20.9 km/h 20.9 km/h 53 % 0 mm
16:38 -6.8 °C -12.3 °C 34496.6 hPa West 15 km/h 15 km/h 53 % 0 mm
16:43 -6.6 °C -11.9 °C 34496.6 hPa SSW 9.8 km/h 9.8 km/h 54 % 0 mm
16:48 -6.6 °C -12.1 °C 34496.6 hPa West 25.1 km/h 25.1 km/h 53 % 0 mm
16:53 -6.8 °C -12.3 °C 34462.7 hPa SSW 7.6 km/h 7.6 km/h 53 % 0 mm
16:58 -6.7 °C -12.2 °C 34462.7 hPa SSW 3.1 km/h   53 % 0 mm
17:03 -6.6 °C -12.1 °C 34462.7 hPa West 11.9 km/h 11.9 km/h 53 % 0 mm
17:08 -6.6 °C -12.1 °C 34462.7 hPa SW 23.8 km/h 23.8 km/h 53 % 0 mm
17:13 -6.8 °C -12.3 °C 34462.7 hPa South 17.9 km/h 17.9 km/h 53 % 0 mm
17:18 -6.7 °C -12.2 °C 34462.7 hPa SSW 6 km/h 6 km/h 53 % 0 mm
17:23 -6.7 °C -12.2 °C 34462.7 hPa SW 15 km/h 15 km/h 53 % 0 mm
17:28 -6.6 °C -12.1 °C 34462.7 hPa SSW 9 km/h 9 km/h 53 % 0 mm
17:33 -6.5 °C -12 °C 34462.7 hPa SW 15 km/h 15 km/h 53 % 0 mm
17:38 -6.6 °C -12.1 °C 34462.7 hPa South 9 km/h 9 km/h 53 % 0 mm
17:43 -6.3 °C -11.8 °C 34462.7 hPa SW 11.9 km/h 11.9 km/h 53 % 0 mm
17:48 -6.6 °C -12.2 °C 34462.7 hPa SW 15 km/h 15 km/h 52 % 0 mm
17:53 -6.4 °C -11.9 °C 34462.7 hPa WSW 15 km/h 15 km/h 53 % 0 mm
18:08 -6.7 °C -12.2 °C 34462.7 hPa WSW 20.9 km/h 20.9 km/h 53 % 0 mm
18:13 -6.8 °C -12.3 °C 34462.7 hPa WSW 15 km/h 15 km/h 53 % 0 mm
18:18 -6.7 °C -12.4 °C 34462.7 hPa SW 23.8 km/h 23.8 km/h 52 % 0 mm
18:23 -6.7 °C -12.2 °C 34462.7 hPa WSW 15 km/h 15 km/h 53 % 0 mm
18:28 -6.6 °C -12.2 °C 34462.7 hPa West 17.9 km/h 17.9 km/h 52 % 0 mm
18:33 -6.6 °C -12.3 °C 34462.7 hPa SSW 15 km/h 15 km/h 52 % 0 mm
18:38 -6.4 °C -12.1 °C 34462.7 hPa SW 11.9 km/h 11.9 km/h 52 % 0 mm
18:43 -6.6 °C -12.2 °C 34462.7 hPa SSW 26.9 km/h 26.9 km/h 52 % 0 mm
18:48 -6.6 °C -12.2 °C 34462.7 hPa West 17.9 km/h 17.9 km/h 52 % 0 mm
18:53 -6.7 °C -12.3 °C 34462.7 hPa WSW 15 km/h 15 km/h 52 % 0 mm
18:58 -6.7 °C -12.3 °C 34462.7 hPa WSW 12.2 km/h 12.2 km/h 52 % 0 mm
19:03 -6.9 °C -12.6 °C 34462.7 hPa West 15 km/h 15 km/h 52 % 0 mm
19:08 -7 °C -12.4 °C 34462.7 hPa SW 15 km/h 15 km/h 53 % 0 mm
19:13 -7.2 °C -12.6 °C 34462.7 hPa West 15 km/h 15 km/h 53 % 0 mm
19:18 -7.3 °C -12.6 °C 34462.7 hPa SW 15 km/h 15 km/h 54 % 0 mm
19:23 -7.3 °C -12.6 °C 34462.7 hPa WSW 15.3 km/h 15.3 km/h 54 % 0 mm
19:28 -7.4 °C -12.7 °C 34462.7 hPa SW 24.3 km/h 24.3 km/h 54 % 0 mm
19:38 -7.6 °C -12.7 °C 34462.7 hPa WSW 20.9 km/h 20.9 km/h 55 % 0 mm
19:43 -7.7 °C -12.6 °C 34462.7 hPa WSW 20.9 km/h 20.9 km/h 56 % 0 mm
19:45 -10.1 °C -12.6 °C 34496.6 hPa Calm     75 % 0 mm
19:48 -7.7 °C -12.7 °C 34462.7 hPa WSW 20.9 km/h 20.9 km/h 56 % 0 mm
19:53 -7.9 °C -12.6 °C 34462.7 hPa SW 11.9 km/h 11.9 km/h 58 % 0 mm
19:55 -10.2 °C -12.7 °C 34496.6 hPa Calm     75 % 0 mm
19:58 -7.9 °C -12.4 °C 34462.7 hPa SSW 11.9 km/h 11.9 km/h 59 % 0 mm
20:03 -7.9 °C -12.4 °C 34462.7 hPa SSW 3.1 km/h 9.3 km/h 59 % 0 mm
20:05 -10.3 °C -12.6 °C 34496.6 hPa Calm     76 % 0 mm
20:08 -8.1 °C -12.4 °C 34462.7 hPa SSW 3.1 km/h 9.3 km/h 60 % 0 mm
20:13 -8.2 °C -12.6 °C 34462.7 hPa WSW 11.9 km/h 11.9 km/h 60 % 0 mm
20:15 -10.3 °C -12.6 °C 34496.6 hPa Calm   2.6 km/h 76 % 0 mm
20:23 -8.3 °C -12.6 °C 34462.7 hPa WSW 11.9 km/h 11.9 km/h 61 % 0 mm
20:25 -10.3 °C -12.6 °C 34496.6 hPa Calm   2.6 km/h 77 % 0 mm
20:33 -8.5 °C -12.4 °C 34462.7 hPa WSW 11.9 km/h 11.9 km/h 63 % 0 mm
20:35 -10.3 °C -12.6 °C 34496.6 hPa NE 2.6 km/h 2.6 km/h 77 % 0 mm
20:38 -8.6 °C -12.3 °C 34428.8 hPa WSW 12.7 km/h 12.7 km/h 64 % 0 mm
20:43 -8.6 °C -12.4 °C 34428.8 hPa WSW 12.7 km/h 12.7 km/h 64 % 0 mm
20:45 -10.3 °C -12.6 °C 34496.6 hPa NE 2.6 km/h 5.1 km/h 77 % 0 mm
20:48 -8.7 °C -12.4 °C 34428.8 hPa WSW 12.7 km/h 12.7 km/h 64 % 0 mm
20:53 -8.7 °C -12.4 °C 34462.7 hPa WSW 11.9 km/h 11.9 km/h 65 % 0 mm
20:55 -10.4 °C -12.7 °C 34496.6 hPa ENE 2.6 km/h 5.1 km/h 76 % 0 mm
20:58 -8.8 °C -12.4 °C 34462.7 hPa WSW 11.9 km/h 11.9 km/h 65 % 0 mm
21:03 -8.8 °C -12.5 °C 34462.7 hPa WSW 11.9 km/h 11.9 km/h 65 % 0 mm
21:08 -8.9 °C -12.4 °C 34462.7 hPa WSW 11.9 km/h 11.9 km/h 66 % 0 mm
21:13 -8.9 °C -12.4 °C 34462.7 hPa WSW 11.9 km/h 11.9 km/h 66 % 0 mm
21:15 -10.4 °C -12.6 °C 34462.7 hPa Calm   2.6 km/h 77 % 0 mm
21:18 -9 °C -12.4 °C 34462.7 hPa WSW 11.9 km/h 11.9 km/h 67 % 0 mm
21:23 -9.1 °C -12.4 °C 34462.7 hPa South 11.9 km/h 11.9 km/h 67 % 0 mm
21:25 -10.6 °C -12.9 °C 34462.7 hPa SE 2.6 km/h 5.1 km/h 76 % 0 mm
21:28 -9.1 °C -12.3 °C 34462.7 hPa SW 11.9 km/h 11.9 km/h 68 % 0 mm
21:33 -9.1 °C -12.4 °C 34462.7 hPa WSW 9 km/h 9 km/h 68 % 0 mm
21:35 -10.7 °C -12.9 °C 34462.7 hPa Calm   5.1 km/h 77 % 0 mm
21:38 -9.2 °C -12.3 °C 34462.7 hPa SSW 7.6 km/h 7.6 km/h 69 % 0 mm
21:43 -9.2 °C -12.3 °C 34462.7 hPa SW 8.5 km/h 8.5 km/h 69 % 0 mm
21:48 -9.2 °C -12.4 °C 34462.7 hPa SW 9 km/h   69 % 0 mm
21:53 -9.3 °C -12.4 °C 34462.7 hPa SW 6 km/h   69 % 0 mm
21:55 -10.8 °C -13 °C 34462.7 hPa SW 2.6 km/h 5.1 km/h 77 % 0 mm
21:58 -9.3 °C -12.3 °C 34462.7 hPa South 6 km/h 6 km/h 70 % 0 mm
22:03 -9.3 °C -12.3 °C 34462.7 hPa ESE 3.7 km/h 3.7 km/h 70 % 0 mm
22:05 -10.9 °C -12.9 °C 34462.7 hPa Calm   5.1 km/h 79 % 0 mm
22:08 -9.3 °C -12.3 °C 34462.7 hPa WNW 3.1 km/h   70 % 0 mm
22:13 -9.4 °C -12.4 °C 34462.7 hPa Calm     70 % 0 mm
22:15 -10.9 °C -12.9 °C 34428.8 hPa WSW 2.6 km/h 5.1 km/h 79 % 0 mm
22:19 -9.4 °C -12.4 °C 34462.7 hPa SW 6 km/h   70 % 0 mm
22:24 -9.5 °C -12.5 °C 34496.6 hPa WSW 2.3 km/h 2.3 km/h 70 % 0 mm
22:34 -9.6 °C -12.6 °C 34496.6 hPa SW 6 km/h 6 km/h 70 % 0 mm
22:35 -10.9 °C -12.9 °C 34462.7 hPa Calm   5.1 km/h 79 % 0 mm
22:39 -9.6 °C -12.6 °C 34496.6 hPa SW 6 km/h 6 km/h 70 % 0 mm
22:44 -9.6 °C -12.6 °C 34496.6 hPa WSW 6.3 km/h 6.3 km/h 70 % 0 mm
22:45 -10.9 °C -12.9 °C 34462.7 hPa WSW 2.6 km/h 5.1 km/h 79 % 0 mm
22:49 -9.6 °C -12.5 °C 34496.6 hPa WSW 6 km/h 6 km/h 71 % 0 mm
22:54 -9.6 °C -12.5 °C 34496.6 hPa WSW 4.2 km/h 4.2 km/h 71 % 0 mm
22:55 -10.9 °C -12.8 °C 34462.7 hPa SW 2.6 km/h 5.1 km/h 80 % 0 mm
22:59 -9.6 °C -12.4 °C 34496.6 hPa WSW 3.1 km/h   72 % 0 mm
23:04 -9.7 °C -12.4 °C 34496.6 hPa Calm     72 % 0 mm
23:05 -11.2 °C -13 °C 34462.7 hPa Calm   5.1 km/h 80 % 0 mm
23:09 -9.7 °C -12.5 °C 34496.6 hPa Calm     72 % 0 mm
23:14 -9.7 °C -12.5 °C 34496.6 hPa WSW 3.7 km/h 3.7 km/h 72 % 0 mm
23:15 -11.1 °C -12.9 °C 34462.7 hPa Calm     80 % 0 mm
23:19 -9.8 °C -12.6 °C 34496.6 hPa Calm     72 % 0 mm
23:24 -9.8 °C -12.5 °C 34496.6 hPa Calm     73 % 0 mm
23:25 -11.2 °C -13.1 °C 34428.8 hPa ENE 2.6 km/h 2.6 km/h 79 % 0 mm
23:29 -9.8 °C -12.5 °C 34496.6 hPa Calm     73 % 0 mm
23:34 -9.9 °C -12.6 °C 34496.6 hPa Calm     73 % 0 mm
23:35 -11.2 °C -13.1 °C 34428.8 hPa Calm     80 % 0 mm
23:44 -9.9 °C -12.4 °C 34496.6 hPa Calm     74 % 0 mm
23:45 -11.3 °C -13 °C 34462.7 hPa Calm   2.6 km/h 81 % 0 mm
23:49 -9.9 °C -12.4 °C 34496.6 hPa Calm     74 % 0 mm
23:54 -10 °C -12.6 °C 34496.6 hPa Calm     74 % 0 mm
23:55 -11.4 °C -13.3 °C 34428.8 hPa WSW 2.6 km/h 5.1 km/h 79 % 0 mm
23:59 -10 °C -12.6 °C 34496.6 hPa Calm     74 % 0 mm
Meteo Sesrovires
Elogis d' Weather Underground - 1.5 mb

Guio original per  Jim McMurry - jmcmurry@mwt.net Adaptat per a la plantilla per  Wim van der Kuil - Leuven-Template.eu

Trobareu la nostra informacio del temps tambe a:

Weather Underground

AWEKAS